createdAt,value
2023-05-19T00:00:25.474Z,16.17
2023-05-19T00:01:26.645Z,16.15
2023-05-19T00:02:24.730Z,16.16
2023-05-19T00:03:24.449Z,16.18
2023-05-19T00:04:24.463Z,16.19
2023-05-19T00:05:24.459Z,16.18
2023-05-19T00:06:25.202Z,16.20
2023-05-19T00:07:24.572Z,16.18
2023-05-19T00:08:24.648Z,16.13
2023-05-19T00:09:24.404Z,16.05
2023-05-19T00:10:25.095Z,16.05
2023-05-19T00:11:24.547Z,16.10
2023-05-19T00:12:24.400Z,16.09
2023-05-19T00:13:24.348Z,16.08
2023-05-19T00:14:24.910Z,16.08
2023-05-19T00:15:24.624Z,16.07
2023-05-19T00:16:25.040Z,16.07
2023-05-19T00:17:24.900Z,16.05
2023-05-19T00:18:24.687Z,16.03
2023-05-19T00:19:24.401Z,15.89
2023-05-19T00:20:25.038Z,15.86
2023-05-19T00:21:24.452Z,15.86
2023-05-19T00:22:24.618Z,15.89
2023-05-19T00:23:24.950Z,15.92
2023-05-19T00:24:24.432Z,15.93
2023-05-19T00:25:24.973Z,15.94
2023-05-19T00:26:24.637Z,15.94
2023-05-19T00:27:24.428Z,15.92
2023-05-19T00:28:24.819Z,15.91
2023-05-19T00:29:24.327Z,15.90
2023-05-19T00:30:25.154Z,15.92
2023-05-19T00:31:24.552Z,15.93
2023-05-19T00:32:24.735Z,15.88
2023-05-19T00:33:24.310Z,15.89
2023-05-19T00:34:24.554Z,15.88
2023-05-19T00:35:24.197Z,15.85
2023-05-19T00:36:24.658Z,15.87
2023-05-19T00:37:24.431Z,15.86
2023-05-19T00:38:24.752Z,15.82
2023-05-19T00:39:24.129Z,15.86
2023-05-19T00:40:25.034Z,15.84
2023-05-19T00:41:24.477Z,15.84
2023-05-19T00:42:24.619Z,15.82
2023-05-19T00:43:24.542Z,15.78
2023-05-19T00:44:24.379Z,15.77
2023-05-19T00:45:24.415Z,15.75
2023-05-19T00:46:24.863Z,15.73
2023-05-19T00:47:24.775Z,15.73
2023-05-19T00:48:24.401Z,15.72
2023-05-19T00:49:24.544Z,15.72
2023-05-19T00:50:24.776Z,15.69
2023-05-19T00:51:24.496Z,15.65
2023-05-19T00:52:25.261Z,15.59
2023-05-19T00:53:25.058Z,15.53
2023-05-19T00:54:25.169Z,15.51
2023-05-19T00:55:25.094Z,15.5
2023-05-19T00:56:24.631Z,15.52
2023-05-19T00:57:24.676Z,15.52
2023-05-19T00:58:24.606Z,15.53
2023-05-19T00:59:24.503Z,15.52
2023-05-19T01:00:25.851Z,15.51
2023-05-19T01:01:24.936Z,15.43
2023-05-19T01:02:24.997Z,15.31
2023-05-19T01:03:24.991Z,15.32
2023-05-19T01:04:24.791Z,15.39
2023-05-19T01:05:24.673Z,15.31
2023-05-19T01:06:24.595Z,15.31
2023-05-19T01:07:24.505Z,15.31
2023-05-19T01:08:24.440Z,15.33
2023-05-19T01:09:25.020Z,15.37
2023-05-19T01:10:24.819Z,15.37
2023-05-19T01:11:24.191Z,15.36
2023-05-19T01:12:24.102Z,15.34
2023-05-19T01:13:24.508Z,15.35
2023-05-19T01:14:24.661Z,15.33
2023-05-19T01:15:24.394Z,15.30
2023-05-19T01:16:25.111Z,15.17
2023-05-19T01:17:24.954Z,15.07
2023-05-19T01:18:24.950Z,15.10
2023-05-19T01:19:24.443Z,15.14
2023-05-19T01:20:24.339Z,15.17
2023-05-19T01:21:24.226Z,15.16
2023-05-19T01:22:24.900Z,15.17
2023-05-19T01:23:24.753Z,15.20
2023-05-19T01:24:24.565Z,15.20
2023-05-19T01:25:24.695Z,15.20
2023-05-19T01:26:24.416Z,15.17
2023-05-19T01:27:24.851Z,15.16
2023-05-19T01:28:24.722Z,15.16
2023-05-19T01:29:24.508Z,15.18
2023-05-19T01:30:24.667Z,15.15
2023-05-19T01:31:24.468Z,15.16
2023-05-19T01:32:24.534Z,15.15
2023-05-19T01:33:24.326Z,15.14
2023-05-19T01:34:24.319Z,15.15
2023-05-19T01:35:24.966Z,15.10
2023-05-19T01:36:24.608Z,15.10
2023-05-19T01:37:24.275Z,15.07
2023-05-19T01:38:24.803Z,15.02
2023-05-19T01:39:24.205Z,15.03
2023-05-19T01:40:25.006Z,15.03
2023-05-19T01:41:24.635Z,15.02
2023-05-19T01:42:24.398Z,15.01
2023-05-19T01:43:24.632Z,15.01
2023-05-19T01:44:24.326Z,14.99
2023-05-19T01:45:24.945Z,14.98
2023-05-19T01:46:24.822Z,14.99
2023-05-19T01:47:24.634Z,14.97
2023-05-19T01:48:24.464Z,14.93
2023-05-19T01:49:24.898Z,14.91
2023-05-19T01:50:24.664Z,14.88
2023-05-19T01:51:24.549Z,14.89
2023-05-19T01:52:24.172Z,14.87
2023-05-19T01:53:24.651Z,14.87
2023-05-19T01:54:24.540Z,14.88
2023-05-19T01:55:25.158Z,14.84
2023-05-19T01:56:24.806Z,14.84
2023-05-19T01:57:24.563Z,14.82
2023-05-19T01:58:24.410Z,14.82
2023-05-19T01:59:24.150Z,14.81
2023-05-19T02:00:25.736Z,14.80
2023-05-19T02:01:24.570Z,14.77
2023-05-19T02:02:24.594Z,14.80
2023-05-19T02:03:24.623Z,14.79
2023-05-19T02:04:24.448Z,14.79
2023-05-19T02:05:24.688Z,14.78
2023-05-19T02:06:24.460Z,14.76
2023-05-19T02:07:29.800Z,14.73
2023-05-19T02:08:24.441Z,14.77
2023-05-19T02:09:29.411Z,14.79
2023-05-19T02:10:24.592Z,14.77
2023-05-19T02:11:24.313Z,14.75
2023-05-19T02:12:24.948Z,14.73
2023-05-19T02:13:24.364Z,14.72
2023-05-19T02:14:24.386Z,14.71
2023-05-19T02:15:24.736Z,14.69
2023-05-19T02:16:24.681Z,14.68
2023-05-19T02:17:24.630Z,14.67
2023-05-19T02:18:24.985Z,14.67
2023-05-19T02:19:24.955Z,14.64
2023-05-19T02:20:24.817Z,14.60
2023-05-19T02:21:24.601Z,14.59
2023-05-19T02:22:24.498Z,14.58
2023-05-19T02:23:24.452Z,14.57
2023-05-19T02:24:24.304Z,14.55
2023-05-19T02:25:24.425Z,14.54
2023-05-19T02:26:24.467Z,14.52
2023-05-19T02:27:24.482Z,14.51
2023-05-19T02:28:24.646Z,14.50
2023-05-19T02:29:29.164Z,14.48
2023-05-19T02:30:24.860Z,14.44
2023-05-19T02:31:24.613Z,14.40
2023-05-19T02:32:24.805Z,14.40
2023-05-19T02:33:24.706Z,14.39
2023-05-19T02:34:24.698Z,14.37
2023-05-19T02:35:24.951Z,14.37
2023-05-19T02:36:24.578Z,14.36
2023-05-19T02:37:24.378Z,14.36
2023-05-19T02:38:24.290Z,14.36
2023-05-19T02:39:24.390Z,14.36
2023-05-19T02:40:24.524Z,14.33
2023-05-19T02:41:24.505Z,14.31
2023-05-19T02:42:24.558Z,14.30
2023-05-19T02:43:24.541Z,14.27
2023-05-19T02:44:24.548Z,14.25
2023-05-19T02:45:24.975Z,14.23
2023-05-19T02:46:25.054Z,14.21
2023-05-19T02:47:25.572Z,14.19
2023-05-19T02:48:25.221Z,14.18
2023-05-19T02:49:24.687Z,14.18
2023-05-19T02:50:24.468Z,14.16
2023-05-19T02:51:24.126Z,14.14
2023-05-19T02:52:24.736Z,14.12
2023-05-19T02:53:24.343Z,14.07
2023-05-19T02:54:24.776Z,14.06
2023-05-19T02:55:24.596Z,14.04
2023-05-19T02:56:24.356Z,14.02
2023-05-19T02:57:24.341Z,13.98
2023-05-19T02:58:24.250Z,13.96
2023-05-19T02:59:25.837Z,13.94
2023-05-19T03:00:25.962Z,13.95
2023-05-19T03:02:29.908Z,13.93
2023-05-19T03:03:24.736Z,13.92
2023-05-19T03:04:25.050Z,13.92
2023-05-19T03:05:24.997Z,13.89
2023-05-19T03:06:24.784Z,13.85
2023-05-19T03:07:24.661Z,13.78
2023-05-19T03:08:24.493Z,13.68
2023-05-19T03:09:24.905Z,13.70
2023-05-19T03:10:24.779Z,13.69
2023-05-19T03:11:24.498Z,13.69
2023-05-19T03:12:24.593Z,13.68
2023-05-19T03:13:24.439Z,13.70
2023-05-19T03:14:24.552Z,13.67
2023-05-19T03:15:24.715Z,13.67
2023-05-19T03:16:24.631Z,13.69
2023-05-19T03:17:24.512Z,13.69
2023-05-19T03:18:24.799Z,13.68
2023-05-19T03:19:24.630Z,13.70
2023-05-19T03:20:24.720Z,13.69
2023-05-19T03:21:24.717Z,13.66
2023-05-19T03:22:24.566Z,13.63
2023-05-19T03:23:24.365Z,13.63
2023-05-19T03:24:24.281Z,13.61
2023-05-19T03:25:24.628Z,13.61
2023-05-19T03:26:24.208Z,13.60
2023-05-19T03:27:24.842Z,13.60
2023-05-19T03:28:24.538Z,13.61
2023-05-19T03:29:24.388Z,13.59
2023-05-19T03:30:24.420Z,13.60
2023-05-19T03:31:24.401Z,13.58
2023-05-19T03:32:24.339Z,13.57
2023-05-19T03:33:24.505Z,13.56
2023-05-19T03:34:24.474Z,13.56
2023-05-19T03:35:24.584Z,13.52
2023-05-19T03:36:24.592Z,13.51
2023-05-19T03:37:24.506Z,13.50
2023-05-19T03:38:25.385Z,13.48
2023-05-19T03:39:24.920Z,13.46
2023-05-19T03:40:24.977Z,13.44
2023-05-19T03:41:24.777Z,13.43
2023-05-19T03:42:24.441Z,13.43
2023-05-19T03:43:24.267Z,13.44
2023-05-19T03:44:24.922Z,13.44
2023-05-19T03:45:25.030Z,13.43
2023-05-19T03:46:24.864Z,13.43
2023-05-19T03:47:25.033Z,13.42
2023-05-19T03:48:24.948Z,13.43
2023-05-19T03:49:24.706Z,13.44
2023-05-19T03:50:24.893Z,13.43
2023-05-19T03:51:24.639Z,13.44
2023-05-19T03:52:24.611Z,13.43
2023-05-19T03:53:24.402Z,13.42
2023-05-19T03:54:24.600Z,13.44
2023-05-19T03:55:24.807Z,13.43
2023-05-19T03:56:24.742Z,13.42
2023-05-19T03:57:24.610Z,13.43
2023-05-19T03:58:24.685Z,13.44
2023-05-19T03:59:24.492Z,13.45
2023-05-19T04:00:25.863Z,13.46
2023-05-19T04:01:24.735Z,13.44
2023-05-19T04:02:25.132Z,13.46
2023-05-19T04:03:24.670Z,13.47
2023-05-19T04:04:24.956Z,13.47
2023-05-19T04:05:24.769Z,13.47
2023-05-19T04:06:24.732Z,13.47
2023-05-19T04:07:24.725Z,13.48
2023-05-19T04:08:24.710Z,13.52
2023-05-19T04:09:24.734Z,13.52
2023-05-19T04:10:24.709Z,13.51
2023-05-19T04:11:24.433Z,13.53
2023-05-19T04:12:24.582Z,13.52
2023-05-19T04:13:24.733Z,13.52
2023-05-19T04:14:24.603Z,13.52
2023-05-19T04:15:24.762Z,13.53
2023-05-19T04:16:24.990Z,13.52
2023-05-19T04:17:25.236Z,13.52
2023-05-19T04:18:25.537Z,13.52
2023-05-19T04:19:24.805Z,13.52
2023-05-19T04:20:24.781Z,13.54
2023-05-19T04:21:24.732Z,13.53
2023-05-19T04:22:24.906Z,13.54
2023-05-19T04:23:24.864Z,13.56
2023-05-19T04:24:25.105Z,13.56
2023-05-19T04:25:25.472Z,13.57
2023-05-19T04:26:24.735Z,13.60
2023-05-19T04:27:24.849Z,13.60
2023-05-19T04:28:24.549Z,13.62
2023-05-19T04:29:24.603Z,13.65
2023-05-19T04:30:24.824Z,13.65
2023-05-19T04:31:24.803Z,13.68
2023-05-19T04:32:30.097Z,13.68
2023-05-19T04:33:24.657Z,13.72
2023-05-19T04:34:24.713Z,13.73
2023-05-19T04:35:24.833Z,13.75
2023-05-19T04:36:24.732Z,13.77
2023-05-19T04:37:24.620Z,13.77
2023-05-19T04:38:24.470Z,13.81
2023-05-19T04:39:24.301Z,13.81
2023-05-19T04:40:24.829Z,13.84
2023-05-19T04:41:24.518Z,13.86
2023-05-19T04:42:24.438Z,13.89
2023-05-19T04:43:24.451Z,13.93
2023-05-19T04:44:24.299Z,13.95
2023-05-19T04:45:25.200Z,14.01
2023-05-19T04:46:24.766Z,14.06
2023-05-19T04:47:24.690Z,14.12
2023-05-19T04:48:24.716Z,14.16
2023-05-19T04:49:24.929Z,14.20
2023-05-19T04:50:24.986Z,14.27
2023-05-19T04:51:24.881Z,14.35
2023-05-19T04:52:24.835Z,14.44
2023-05-19T04:53:24.789Z,14.52
2023-05-19T04:54:24.732Z,14.64
2023-05-19T04:55:24.772Z,14.73
2023-05-19T04:56:24.664Z,14.77
2023-05-19T04:57:24.945Z,14.80
2023-05-19T04:58:24.895Z,14.93
2023-05-19T04:59:24.680Z,15.05
2023-05-19T05:00:25.351Z,15.15
2023-05-19T05:01:25.181Z,15.28
2023-05-19T05:02:24.773Z,15.40
2023-05-19T05:03:24.808Z,15.51
2023-05-19T05:04:24.784Z,15.63
2023-05-19T05:05:24.822Z,15.77
2023-05-19T05:06:24.450Z,15.92
2023-05-19T05:07:24.710Z,16.05
2023-05-19T05:08:24.714Z,16.16
2023-05-19T05:09:24.640Z,16.31
2023-05-19T05:10:24.814Z,16.43
2023-05-19T05:11:24.621Z,16.60
2023-05-19T05:12:24.642Z,16.73
2023-05-19T05:13:24.735Z,16.87
2023-05-19T05:14:24.636Z,17.02
2023-05-19T05:15:25.248Z,17.15
2023-05-19T05:16:24.492Z,17.30
2023-05-19T05:17:24.661Z,17.44
2023-05-19T05:18:24.749Z,17.55
2023-05-19T05:19:24.740Z,17.70
2023-05-19T05:20:24.887Z,17.85
2023-05-19T05:21:24.811Z,17.99
2023-05-19T05:22:24.765Z,18.09
2023-05-19T05:23:24.771Z,18.20
2023-05-19T05:24:24.744Z,18.32
2023-05-19T05:25:24.931Z,18.41
2023-05-19T05:26:24.776Z,18.5
2023-05-19T05:27:24.922Z,18.60
2023-05-19T05:28:24.868Z,18.68
2023-05-19T05:29:25.075Z,18.80
2023-05-19T05:30:25.420Z,18.90
2023-05-19T05:31:24.480Z,19.02
2023-05-19T05:32:24.553Z,19.11
2023-05-19T05:33:24.694Z,19.23
2023-05-19T05:34:24.547Z,19.37
2023-05-19T05:35:24.569Z,19.48
2023-05-19T05:36:24.557Z,19.60
2023-05-19T05:37:24.930Z,19.71
2023-05-19T05:38:24.793Z,19.83
2023-05-19T05:39:24.762Z,19.96
2023-05-19T05:40:24.892Z,20.07
2023-05-19T05:41:24.769Z,20.21
2023-05-19T05:42:25.334Z,20.33
2023-05-19T05:43:24.539Z,20.44
2023-05-19T05:44:24.606Z,20.54
2023-05-19T05:45:24.893Z,20.66
2023-05-19T05:46:25.218Z,20.79
2023-05-19T05:47:25.043Z,20.92
2023-05-19T05:48:24.820Z,21.05
2023-05-19T05:49:24.648Z,21.19
2023-05-19T05:50:24.996Z,21.34
2023-05-19T05:51:24.842Z,21.45
2023-05-19T05:52:24.762Z,21.59
2023-05-19T05:53:24.658Z,21.71
2023-05-19T05:54:24.974Z,21.84
2023-05-19T05:55:25.182Z,21.95
2023-05-19T05:56:25.225Z,22.07
2023-05-19T05:57:25.539Z,22.19
2023-05-19T05:58:24.645Z,22.32
2023-05-19T05:59:24.750Z,22.42
2023-05-19T06:00:25.958Z,22.54
2023-05-19T06:01:24.843Z,22.65
2023-05-19T06:02:24.770Z,22.79
2023-05-19T06:03:24.890Z,22.92
2023-05-19T06:04:24.958Z,23.07
2023-05-19T06:05:25.280Z,23.18
2023-05-19T06:06:24.619Z,23.31
2023-05-19T06:07:24.795Z,23.43
2023-05-19T06:08:24.771Z,23.52
2023-05-19T06:09:24.762Z,23.62
2023-05-19T06:10:24.776Z,23.72
2023-05-19T06:11:24.608Z,23.77
2023-05-19T06:12:24.719Z,23.86
2023-05-19T06:13:24.698Z,23.93
2023-05-19T06:14:24.618Z,24.00
2023-05-19T06:15:25.012Z,24.10
2023-05-19T06:16:25.006Z,24.12
2023-05-19T06:17:25.184Z,24.18
2023-05-19T06:18:24.548Z,24.23
2023-05-19T06:19:24.686Z,24.31
2023-05-19T06:20:24.718Z,24.38
2023-05-19T06:21:24.697Z,24.44
2023-05-19T06:22:24.634Z,24.51
2023-05-19T06:23:24.702Z,24.57
2023-05-19T06:24:24.956Z,24.64
2023-05-19T06:25:25.004Z,24.69
2023-05-19T06:26:24.670Z,24.74
2023-05-19T06:27:24.760Z,24.78
2023-05-19T06:28:24.804Z,24.81
2023-05-19T06:29:24.832Z,24.79
2023-05-19T06:30:25.163Z,24.78
2023-05-19T06:31:24.928Z,24.81
2023-05-19T06:32:25.088Z,24.82
2023-05-19T06:33:27.387Z,24.81
2023-05-19T06:34:24.861Z,24.79
2023-05-19T06:35:24.881Z,24.75
2023-05-19T06:36:24.633Z,24.75
2023-05-19T06:37:24.616Z,24.67
2023-05-19T06:38:24.667Z,24.63
2023-05-19T06:39:24.651Z,24.59
2023-05-19T06:40:24.967Z,24.51
2023-05-19T06:41:25.164Z,24.44
2023-05-19T06:42:24.372Z,24.36
2023-05-19T06:43:24.707Z,24.28
2023-05-19T06:44:24.915Z,24.17
2023-05-19T06:45:25.486Z,24.03
2023-05-19T06:46:24.883Z,23.92
2023-05-19T06:47:25.334Z,23.79
2023-05-19T06:48:25.164Z,23.65
2023-05-19T06:49:24.851Z,23.51
2023-05-19T06:50:25.353Z,23.40
2023-05-19T06:51:24.815Z,23.32
2023-05-19T06:52:25.026Z,23.23
2023-05-19T06:53:25.019Z,23.20
2023-05-19T06:54:25.016Z,23.15
2023-05-19T06:55:25.429Z,23.12
2023-05-19T06:56:24.732Z,23.10
2023-05-19T06:57:24.985Z,23.10
2023-05-19T06:58:24.855Z,23.13
2023-05-19T06:59:24.977Z,23.13
2023-05-19T07:00:25.263Z,23.16
2023-05-19T07:01:24.475Z,23.08
2023-05-19T07:02:24.951Z,23.04
2023-05-19T07:03:25.456Z,22.96
2023-05-19T07:04:24.995Z,22.90
2023-05-19T07:05:25.188Z,22.87
2023-05-19T07:06:24.685Z,22.82
2023-05-19T07:07:25.097Z,22.79
2023-05-19T07:08:25.035Z,22.75
2023-05-19T07:09:24.574Z,22.68
2023-05-19T07:10:25.138Z,22.62
2023-05-19T07:11:25.018Z,22.58
2023-05-19T07:12:25.178Z,22.61
2023-05-19T07:13:26.614Z,22.54
2023-05-19T07:14:24.881Z,22.48
2023-05-19T07:15:25.265Z,22.45
2023-05-19T07:16:24.443Z,22.44
2023-05-19T07:17:24.972Z,22.42
2023-05-19T07:18:25.029Z,22.42
2023-05-19T07:19:38.899Z,22.39
2023-05-19T07:20:24.799Z,22.29
2023-05-19T07:21:24.821Z,22.19
2023-05-19T07:22:24.743Z,22.17
2023-05-19T07:23:38.855Z,22.20
2023-05-19T07:24:24.961Z,22.11
2023-05-19T07:25:25.151Z,22
2023-05-19T07:26:24.882Z,21.97
2023-05-19T07:27:25.002Z,21.91
2023-05-19T07:28:25.251Z,21.91
2023-05-19T07:29:24.966Z,21.93
2023-05-19T07:30:24.915Z,21.98
2023-05-19T07:31:24.886Z,21.96
2023-05-19T07:32:25.161Z,21.95
2023-05-19T07:33:25.042Z,21.93
2023-05-19T07:34:25.004Z,21.89
2023-05-19T07:35:25.321Z,21.88
2023-05-19T07:36:25.087Z,21.90
2023-05-19T07:37:24.879Z,21.89
2023-05-19T07:38:24.765Z,21.93
2023-05-19T07:39:24.681Z,21.89
2023-05-19T07:40:25.070Z,21.95
2023-05-19T07:41:24.558Z,22
2023-05-19T07:42:25.025Z,22.09
2023-05-19T07:43:25.254Z,22.09
2023-05-19T07:44:25.176Z,22.03
2023-05-19T07:45:25.636Z,22.05
2023-05-19T07:46:25.440Z,22.04
2023-05-19T07:47:24.706Z,22.03
2023-05-19T07:48:25.185Z,22.01
2023-05-19T07:49:24.897Z,21.99
2023-05-19T07:50:25.440Z,21.97
2023-05-19T07:51:24.830Z,21.90
2023-05-19T07:52:25.402Z,21.83
2023-05-19T07:53:24.936Z,21.82
2023-05-19T07:54:24.873Z,21.81
2023-05-19T07:56:30.794Z,21.85
2023-05-19T07:57:24.908Z,21.86
2023-05-19T07:58:24.950Z,21.78
2023-05-19T07:59:25.030Z,21.79
2023-05-19T08:00:25.499Z,21.81
2023-05-19T08:02:29.985Z,21.87
2023-05-19T08:03:25.782Z,21.87
2023-05-19T08:04:25.067Z,21.86
2023-05-19T08:05:24.985Z,21.83
2023-05-19T08:06:24.907Z,21.80
2023-05-19T08:07:24.947Z,21.81
2023-05-19T08:08:25.276Z,21.79
2023-05-19T08:09:25.229Z,21.80
2023-05-19T08:10:25.127Z,21.82
2023-05-19T08:11:25.202Z,21.93
2023-05-19T08:12:25.070Z,22.04
2023-05-19T08:13:25.208Z,22.05
2023-05-19T08:14:25.156Z,22.04
2023-05-19T08:15:24.920Z,22.05
2023-05-19T08:16:25.042Z,22.09
2023-05-19T08:17:24.937Z,22.11
2023-05-19T08:18:24.601Z,22.11
2023-05-19T08:19:24.790Z,22.07
2023-05-19T08:20:24.993Z,22.04
2023-05-19T08:21:24.897Z,22.03
2023-05-19T08:22:24.435Z,22.04
2023-05-19T08:23:24.431Z,22.02
2023-05-19T08:24:24.245Z,22.03
2023-05-19T08:25:25.073Z,22.03
2023-05-19T08:26:24.899Z,22.05
2023-05-19T08:27:24.785Z,22.03
2023-05-19T08:28:24.516Z,22.04
2023-05-19T08:29:24.582Z,22.07
2023-05-19T08:30:25.033Z,22.10
2023-05-19T08:31:25.486Z,22.04
2023-05-19T08:32:24.975Z,22.08
2023-05-19T08:33:25.102Z,22.19
2023-05-19T08:34:24.992Z,22.25
2023-05-19T08:35:24.944Z,22.25
2023-05-19T08:36:24.655Z,22.23
2023-05-19T08:37:24.730Z,22.24
2023-05-19T08:38:24.883Z,22.22
2023-05-19T08:39:24.852Z,22.28
2023-05-19T08:40:24.943Z,22.27
2023-05-19T08:41:24.901Z,22.28
2023-05-19T08:42:25.068Z,22.28
2023-05-19T08:43:24.951Z,22.36
2023-05-19T08:44:24.637Z,22.42
2023-05-19T08:45:25.029Z,22.46
2023-05-19T08:46:25.416Z,22.39
2023-05-19T08:47:24.724Z,22.43
2023-05-19T08:48:24.755Z,22.42
2023-05-19T08:49:25.707Z,22.47
2023-05-19T08:50:25.017Z,22.48
2023-05-19T08:51:25.534Z,22.46
2023-05-19T08:52:24.938Z,22.49
2023-05-19T08:53:33.859Z,22.51
2023-05-19T08:54:24.785Z,22.54
2023-05-19T08:55:25.491Z,22.56
2023-05-19T08:56:24.997Z,22.52
2023-05-19T08:57:24.616Z,22.63
2023-05-19T08:58:25.745Z,22.72
2023-05-19T08:59:25.295Z,22.85
2023-05-19T09:00:25.774Z,22.88
2023-05-19T09:01:25.105Z,22.94
2023-05-19T09:02:24.662Z,22.96
2023-05-19T09:03:24.494Z,22.94
2023-05-19T09:04:25.600Z,22.90
2023-05-19T09:05:25.218Z,22.91
2023-05-19T09:06:25.222Z,22.90
2023-05-19T09:07:25.016Z,22.89
2023-05-19T09:08:24.830Z,22.89
2023-05-19T09:09:25.299Z,22.90
2023-05-19T09:10:26.031Z,22.94
2023-05-19T09:11:24.759Z,22.95
2023-05-19T09:12:25.245Z,22.95
2023-05-19T09:13:24.984Z,22.94
2023-05-19T09:14:25.302Z,22.96
2023-05-19T09:15:25.203Z,22.97
2023-05-19T09:16:27.702Z,23.03
2023-05-19T09:17:25.141Z,23.10
2023-05-19T09:18:24.896Z,23.04
2023-05-19T09:19:25.055Z,22.94
2023-05-19T09:20:25.824Z,23
2023-05-19T09:21:25.243Z,23.14
2023-05-19T09:22:24.731Z,23.22
2023-05-19T09:23:25.107Z,23.33
2023-05-19T09:24:30.185Z,23.45
2023-05-19T09:25:24.886Z,23.56
2023-05-19T09:26:30.337Z,23.65
2023-05-19T09:27:24.755Z,23.79
2023-05-19T09:28:25.449Z,23.82
2023-05-19T09:29:25.270Z,23.78
2023-05-19T09:30:24.973Z,23.79
2023-05-19T09:31:24.752Z,23.88
2023-05-19T09:32:24.694Z,24.03
2023-05-19T09:33:24.801Z,24.20
2023-05-19T09:34:25.098Z,24.13
2023-05-19T09:35:24.820Z,23.94
2023-05-19T09:36:25.037Z,23.82
2023-05-19T09:37:25.017Z,23.79
2023-05-19T09:38:25.068Z,23.78
2023-05-19T09:39:25.249Z,23.93
2023-05-19T09:40:25.014Z,23.96
2023-05-19T09:41:25.021Z,23.94
2023-05-19T09:42:24.841Z,24.07
2023-05-19T09:43:25.033Z,24.28
2023-05-19T09:44:25.245Z,24.16
2023-05-19T09:45:25.079Z,24.07
2023-05-19T09:46:25.438Z,24.05
2023-05-19T09:47:25.072Z,24
2023-05-19T09:48:25.204Z,24.07
2023-05-19T09:49:24.636Z,24.07
2023-05-19T09:50:39.118Z,23.95
2023-05-19T09:51:25.450Z,23.87
2023-05-19T09:52:24.872Z,23.90
2023-05-19T09:53:25.275Z,23.88
2023-05-19T09:54:24.876Z,23.90
2023-05-19T09:55:25.289Z,23.92
2023-05-19T09:56:24.824Z,23.97
2023-05-19T09:57:25.253Z,23.96
2023-05-19T09:58:25.165Z,23.98
2023-05-19T09:59:24.717Z,24.06
2023-05-19T10:00:45.011Z,24.10
2023-05-19T10:01:24.651Z,24.15
2023-05-19T10:02:25.470Z,24.15
2023-05-19T10:03:25.172Z,24.22
2023-05-19T10:04:24.741Z,24.37
2023-05-19T10:05:25.784Z,24.48
2023-05-19T10:06:25.500Z,24.44
2023-05-19T10:07:25.662Z,24.40
2023-05-19T10:08:25.522Z,24.40
2023-05-19T10:09:25.085Z,24.48
2023-05-19T10:10:25.345Z,24.52
2023-05-19T10:11:24.738Z,24.56
2023-05-19T10:12:24.837Z,24.61
2023-05-19T10:13:25.296Z,24.69
2023-05-19T10:14:25.085Z,24.78
2023-05-19T10:15:25.761Z,24.80
2023-05-19T10:17:30.420Z,25.08
2023-05-19T10:18:24.987Z,25.18
2023-05-19T10:19:24.980Z,25.15
2023-05-19T10:20:24.604Z,25.23
2023-05-19T10:21:24.665Z,25.21
2023-05-19T10:22:24.912Z,25.13
2023-05-19T10:23:25.533Z,25.15
2023-05-19T10:25:30.375Z,24.97
2023-05-19T10:26:24.705Z,24.93
2023-05-19T10:27:25.202Z,24.93
2023-05-19T10:28:24.797Z,24.93
2023-05-19T10:29:25.091Z,24.98
2023-05-19T10:30:25.036Z,25.03
2023-05-19T10:31:25.113Z,25.08
2023-05-19T10:32:24.783Z,25.15
2023-05-19T10:33:25.151Z,25.29
2023-05-19T10:34:24.801Z,25.32
2023-05-19T10:35:25.735Z,25.42
2023-05-19T10:36:25.361Z,25.54
2023-05-19T10:37:25.451Z,25.48
2023-05-19T10:38:24.841Z,25.40
2023-05-19T10:39:24.685Z,25.40
2023-05-19T10:40:25.160Z,25.50
2023-05-19T10:41:24.925Z,25.46
2023-05-19T10:42:25.096Z,25.44
2023-05-19T10:43:25.312Z,25.42
2023-05-19T10:44:32.599Z,25.41
2023-05-19T10:45:25.021Z,25.43
2023-05-19T10:46:25.173Z,25.48
2023-05-19T10:47:25.392Z,25.45
2023-05-19T10:48:24.932Z,25.54
2023-05-19T10:49:25.141Z,25.68
2023-05-19T10:50:24.799Z,25.81
2023-05-19T10:51:25.074Z,25.91
2023-05-19T10:52:24.665Z,26.06
2023-05-19T10:53:24.850Z,26.10
2023-05-19T10:54:25.146Z,26.13
2023-05-19T10:55:24.956Z,26.14
2023-05-19T10:56:24.591Z,26.05
2023-05-19T10:57:24.599Z,26.16
2023-05-19T10:58:24.912Z,26.19
2023-05-19T10:59:26.423Z,26.10
2023-05-19T11:00:25.415Z,26.16
2023-05-19T11:01:24.864Z,26.19
2023-05-19T11:02:25.488Z,26.18
2023-05-19T11:03:25.830Z,26.20
2023-05-19T11:04:25.019Z,26.25
2023-05-19T11:05:25.281Z,26.23
2023-05-19T11:06:24.888Z,26.37
2023-05-19T11:07:24.963Z,26.45
2023-05-19T11:08:25.113Z,26.40
2023-05-19T11:09:37.965Z,26.54
2023-05-19T11:10:25.254Z,26.60
2023-05-19T11:11:24.849Z,26.53
2023-05-19T11:12:25.492Z,26.45
2023-05-19T11:13:26.177Z,26.42
2023-05-19T11:14:24.669Z,26.45
2023-05-19T11:15:25.182Z,26.5
2023-05-19T11:16:24.880Z,26.60
2023-05-19T11:17:24.725Z,26.70
2023-05-19T11:18:25.524Z,26.80
2023-05-19T11:19:25.507Z,26.81
2023-05-19T11:20:25.246Z,26.86
2023-05-19T11:21:24.887Z,27.00
2023-05-19T11:22:25.336Z,27.04
2023-05-19T11:23:24.961Z,27.08
2023-05-19T11:24:25.270Z,27.17
2023-05-19T11:25:24.871Z,27.18
2023-05-19T11:26:25.055Z,27.21
2023-05-19T11:27:24.696Z,27.20
2023-05-19T11:28:25.086Z,27.29
2023-05-19T11:29:25.192Z,27.33
2023-05-19T11:30:25.345Z,27.25
2023-05-19T11:31:24.667Z,27.20
2023-05-19T11:32:25.080Z,27.35
2023-05-19T11:33:24.434Z,27.45
2023-05-19T11:34:24.643Z,27.42
2023-05-19T11:35:24.970Z,27.44
2023-05-19T11:36:24.864Z,27.45
2023-05-19T11:37:25.096Z,27.37
2023-05-19T11:38:24.427Z,27.29
2023-05-19T11:39:24.821Z,27.28
2023-05-19T11:40:25.008Z,27.30
2023-05-19T11:41:25.117Z,27.33
2023-05-19T11:42:24.792Z,27.40
2023-05-19T11:43:25.195Z,27.45
2023-05-19T11:44:24.463Z,27.55
2023-05-19T11:45:24.905Z,27.67
2023-05-19T11:46:25.526Z,27.58
2023-05-19T11:47:25.114Z,27.55
2023-05-19T11:48:24.968Z,27.53
2023-05-19T11:49:25.355Z,27.55
2023-05-19T11:50:24.951Z,27.75
2023-05-19T11:51:24.749Z,27.93
2023-05-19T11:52:25.119Z,27.85
2023-05-19T11:53:29.733Z,27.79
2023-05-19T11:54:25.186Z,27.70
2023-05-19T11:55:25.012Z,27.62
2023-05-19T11:56:24.750Z,27.61
2023-05-19T11:57:24.955Z,27.62
2023-05-19T11:58:25.326Z,27.69
2023-05-19T11:59:24.701Z,27.72
2023-05-19T12:00:25.688Z,27.72
2023-05-19T12:01:24.930Z,27.73
2023-05-19T12:02:24.386Z,27.70
2023-05-19T12:03:32.635Z,27.78
2023-05-19T12:04:24.693Z,27.85
2023-05-19T12:05:42.885Z,27.93
2023-05-19T12:06:24.944Z,28.01
2023-05-19T12:07:24.707Z,28.25
2023-05-19T12:08:24.899Z,28.27
2023-05-19T12:09:39.236Z,28.21
2023-05-19T12:10:25.109Z,28.14
2023-05-19T12:11:38.585Z,28.05
2023-05-19T12:12:25.267Z,28.03
2023-05-19T12:13:39.134Z,28.01
2023-05-19T12:14:24.632Z,28.03
2023-05-19T12:15:25.338Z,28
2023-05-19T12:16:25.241Z,27.87
2023-05-19T12:17:25.241Z,27.74
2023-05-19T12:18:25.158Z,27.69
2023-05-19T12:19:24.795Z,27.76
2023-05-19T12:20:25.388Z,27.72
2023-05-19T12:21:24.860Z,27.69
2023-05-19T12:22:24.859Z,27.95
2023-05-19T12:23:25.009Z,28.04
2023-05-19T12:24:24.886Z,28.05
2023-05-19T12:25:24.987Z,27.80
2023-05-19T12:26:25.226Z,27.71
2023-05-19T12:27:43.481Z,27.61
2023-05-19T12:28:24.808Z,27.50
2023-05-19T12:29:25.050Z,27.68
2023-05-19T12:30:24.851Z,27.82
2023-05-19T12:31:25.439Z,27.72
2023-05-19T12:32:25.417Z,27.47
2023-05-19T12:33:25.013Z,27.47
2023-05-19T12:34:25.374Z,27.54
2023-05-19T12:35:24.969Z,27.57
2023-05-19T12:36:25.238Z,27.70
2023-05-19T12:37:24.665Z,27.75
2023-05-19T12:38:24.658Z,27.79
2023-05-19T12:39:24.913Z,27.88
2023-05-19T12:40:25.294Z,28.09
2023-05-19T12:41:24.623Z,28.14
2023-05-19T12:42:24.961Z,28.22
2023-05-19T12:43:25.185Z,28.17
2023-05-19T12:44:24.838Z,28.09
2023-05-19T12:46:30.442Z,27.98
2023-05-19T12:47:24.921Z,27.98
2023-05-19T12:48:24.823Z,28.05
2023-05-19T12:50:30.485Z,28.48
2023-05-19T12:51:25.278Z,28.57
2023-05-19T12:52:25.065Z,28.47
2023-05-19T12:53:25.430Z,28.39
2023-05-19T12:54:24.960Z,28.45
2023-05-19T12:55:24.978Z,28.52
2023-05-19T12:56:25.076Z,28.58
2023-05-19T12:57:24.780Z,28.64
2023-05-19T12:58:24.733Z,28.68
2023-05-19T12:59:37.274Z,28.74
2023-05-19T13:00:25.795Z,28.80